Time;durP1;ratioP1;P1;durP2;ratioP2;P2;SDS_P1;SDS_P2;PMS_P1;PMS_P2;Temp;Humidity;BMP_temperature;BMP_pressure;BME280_temperature;BME280_humidity;BME280_pressure;Samples;Min_cycle;Max_cycle;Signal;HPM_P1;HPM_P2
2023/10/13 00:01:19;;;;;;;64.57;28.20;;;;;;;;;;5094104;28;20582;-70
2023/10/13 00:03:45;;;;;;;77.07;29.02;;;;;;;;;;5093940;28;20047;-70
2023/10/13 00:06:11;;;;;;;64.75;28.15;;;;;;;;;;5093082;28;20616;-70
2023/10/13 00:08:38;;;;;;;63.63;28.20;;;;;;;;;;5093347;28;20032;-70
2023/10/13 00:11:04;;;;;;;63.72;28.15;;;;;;;;;;5094378;28;20047;-70
2023/10/13 00:13:52;;;;;;;65.47;27.02;;;;;;;;;;5092557;28;20036;-70
2023/10/13 00:16:27;;;;;;;59.75;27.10;;;;;;;;;;5091136;28;20043;-70
2023/10/13 00:18:59;;;;;;;67.05;26.10;;;;;;;;;;5092916;28;20490;-70
2023/10/13 00:21:31;;;;;;;61.40;27.75;;;;;;;;;;5093745;28;20432;-70
2023/10/13 00:23:59;;;;;;;69.95;28.02;;;;;;;;;;5094441;28;20482;-70
2023/10/13 00:26:30;;;;;;;64.75;27.95;;;;;;;;;;5092774;28;20042;-70
2023/10/13 00:31:48;;;;;;;62.90;27.27;;;;;;;;;;5093502;28;20063;-70
2023/10/13 00:34:27;;;;;;;66.85;28.23;;;;;;;;;;5093859;28;20478;-70
2023/10/13 00:39:45;;;;;;;61.05;28.40;;;;;;;;;;5093434;28;20039;-70
2023/10/13 00:42:19;;;;;;;69.25;29.50;;;;;;;;;;5092745;28;20038;-70
2023/10/13 00:44:48;;;;;;;62.03;26.90;;;;;;;;;;5090779;28;20032;-70
2023/10/13 00:47:32;;;;;;;60.90;28.63;;;;;;;;;;5087693;28;20044;-70
2023/10/13 00:49:58;;;;;;;66.68;28.17;;;;;;;;;;5093662;28;20044;-70
2023/10/13 00:52:25;;;;;;;61.33;28.70;;;;;;;;;;5093470;28;20055;-70
2023/10/13 00:54:51;;;;;;;67.35;28.20;;;;;;;;;;5093120;28;20378;-70
2023/10/13 00:57:26;;;;;;;65.60;27.55;;;;;;;;;;5093179;28;20102;-70
2023/10/13 00:59:57;;;;;;;63.20;28.63;;;;;;;;;;5089925;28;20465;-70
2023/10/13 01:05:02;;;;;;;62.65;28.60;;;;;;;;;;5085704;28;20509;-70
2023/10/13 01:07:28;;;;;;;70.70;28.40;;;;;;;;;;5092787;28;20047;-70
2023/10/13 01:09:55;;;;;;;66.35;28.05;;;;;;;;;;5092626;28;20028;-70
2023/10/13 01:12:24;;;;;;;59.53;28.23;;;;;;;;;;5090411;28;20055;-70
2023/10/13 01:14:50;;;;;;;69.03;28.17;;;;;;;;;;5092538;28;20137;-70
2023/10/13 01:17:18;;;;;;;66.95;28.80;;;;;;;;;;5091377;28;20032;-70
2023/10/13 01:19:45;;;;;;;66.75;29.75;;;;;;;;;;5092352;28;20043;-70
2023/10/13 01:22:11;;;;;;;65.00;28.20;;;;;;;;;;5091893;28;20046;-70
2023/10/13 01:24:37;;;;;;;69.53;28.95;;;;;;;;;;5092298;28;20036;-70
2023/10/13 01:27:25;;;;;;;66.13;27.42;;;;;;;;;;5090655;28;20036;-70
2023/10/13 01:29:58;;;;;;;62.97;27.27;;;;;;;;;;5091677;28;20059;-70
2023/10/13 01:32:24;;;;;;;57.25;26.25;;;;;;;;;;5073294;28;20062;-70
2023/10/13 01:34:55;;;;;;;65.05;27.05;;;;;;;;;;5092296;28;20607;-70
2023/10/13 01:37:21;;;;;;;;;;;;;;;;;;5091041;28;20394;-70
2023/10/13 01:39:49;;;;;;;63.03;27.35;;;;;;;;;;5091249;28;19920;-70
2023/10/13 01:42:19;;;;;;;62.03;25.35;;;;;;;;;;5090249;28;20375;-70
2023/10/13 01:44:45;;;;;;;58.38;25.08;;;;;;;;;;5091331;28;20482;-70
2023/10/13 01:47:12;;;;;;;56.60;24.58;;;;;;;;;;5090672;28;20053;-70
2023/10/13 01:49:58;;;;;;;56.97;24.15;;;;;;;;;;5073243;28;20066;-70
2023/10/13 01:52:24;;;;;;;62.47;24.42;;;;;;;;;;5091510;28;20066;-70
2023/10/13 01:54:51;;;;;;;56.42;24.20;;;;;;;;;;5072629;28;20565;-70
2023/10/13 01:57:17;;;;;;;56.72;23.88;;;;;;;;;;5090990;28;20035;-70
2023/10/13 01:59:44;;;;;;;51.33;22.67;;;;;;;;;;5090086;28;20067;-70
2023/10/13 02:02:12;;;;;;;52.88;23.33;;;;;;;;;;5089503;28;20044;-70
2023/10/13 02:04:46;;;;;;;49.00;22.58;;;;;;;;;;5093785;28;20458;-70
2023/10/13 02:07:15;;;;;;;46.83;22.48;;;;;;;;;;5089868;28;20051;-70
2023/10/13 02:09:42;;;;;;;50.45;21.85;;;;;;;;;;5090686;28;20036;-70
2023/10/13 02:12:09;;;;;;;49.03;21.38;;;;;;;;;;5090798;28;20409;-71
2023/10/13 02:14:36;;;;;;;49.80;21.65;;;;;;;;;;5091094;28;20126;-70
2023/10/13 02:17:12;;;;;;;48.15;22.27;;;;;;;;;;5091640;28;20055;-70
2023/10/13 02:19:45;;;;;;;47.17;22.40;;;;;;;;;;5091743;28;20044;-70
2023/10/13 02:22:11;;;;;;;45.10;21.10;;;;;;;;;;5091241;28;20047;-70
2023/10/13 02:24:40;;;;;;;46.95;21.13;;;;;;;;;;5090986;28;20133;-70
2023/10/13 02:27:13;;;;;;;48.60;21.08;;;;;;;;;;5091135;28;20067;-70
2023/10/13 02:29:40;;;;;;;47.92;21.13;;;;;;;;;;5090752;28;20370;-70
2023/10/13 02:32:18;;;;;;;45.88;21.20;;;;;;;;;;5092080;28;20040;-70
2023/10/13 02:34:44;;;;;;;45.22;19.60;;;;;;;;;;5090981;28;20052;-70
2023/10/13 02:37:10;;;;;;;48.13;21.70;;;;;;;;;;5091810;28;20047;-70
2023/10/13 02:39:41;;;;;;;48.17;22.17;;;;;;;;;;5091664;28;20040;-70
2023/10/13 02:42:07;;;;;;;50.57;21.57;;;;;;;;;;5084132;28;20833;-70
2023/10/13 02:44:36;;;;;;;46.38;20.90;;;;;;;;;;5090920;28;20048;-70
2023/10/13 02:47:05;;;;;;;46.25;20.13;;;;;;;;;;5090861;28;20044;-70
2023/10/13 02:49:36;;;;;;;44.33;20.55;;;;;;;;;;5094217;28;20040;-70
2023/10/13 02:52:07;;;;;;;43.13;19.33;;;;;;;;;;5095432;28;20067;-70
2023/10/13 02:54:39;;;;;;;;;;;;;;;;;;5094184;28;20040;-70
2023/10/13 02:57:05;;;;;;;43.63;19.83;;;;;;;;;;5093821;28;19917;-70
2023/10/13 03:00:16;;;;;;;48.20;20.50;;;;;;;;;;5094713;28;20028;-70
2023/10/13 03:02:25;;;;;;;39.22;18.95;;;;;;;;;;5085466;28;20036;-70
2023/10/13 03:04:51;;;;;;;43.83;18.75;;;;;;;;;;5094487;28;20074;-70
2023/10/13 03:07:23;;;;;;;44.17;19.85;;;;;;;;;;5095306;28;20397;-70
2023/10/13 03:09:50;;;;;;;41.53;19.25;;;;;;;;;;5094518;28;20613;-70
2023/10/13 03:12:17;;;;;;;41.53;19.70;;;;;;;;;;5095587;28;20032;-70
2023/10/13 03:14:49;;;;;;;39.17;19.35;;;;;;;;;;5094920;28;20040;-70
2023/10/13 03:17:18;;;;;;;44.10;19.65;;;;;;;;;;5095146;28;20121;-70
2023/10/13 03:19:51;;;;;;;42.75;19.00;;;;;;;;;;5095420;22;20061;-71
2023/10/13 03:22:18;;;;;;;45.25;19.40;;;;;;;;;;5056997;28;20086;-71
2023/10/13 03:24:47;;;;;;;41.97;19.77;;;;;;;;;;5056322;28;20119;-72
2023/10/13 03:27:24;;;;;;;42.00;20.15;;;;;;;;;;5074506;28;20507;-72
2023/10/13 03:30:00;;;;;;;38.45;19.63;;;;;;;;;;5056379;28;20166;-72
2023/10/13 03:32:26;;;;;;;42.13;20.33;;;;;;;;;;5056878;28;20486;-72
2023/10/13 03:34:53;;;;;;;42.50;19.27;;;;;;;;;;5054780;28;20509;-72
2023/10/13 03:37:38;;;;;;;39.35;19.95;;;;;;;;;;5071569;28;20502;-72
2023/10/13 03:40:33;;;;;;;44.58;20.42;;;;;;;;;;5053738;28;20194;-72
2023/10/13 03:43:10;;;;;;;40.85;20.88;;;;;;;;;;5074408;28;20040;-72
2023/10/13 03:45:42;;;;;;;40.03;20.70;;;;;;;;;;5074702;28;20062;-72
2023/10/13 03:51:03;;;;;;;45.67;21.05;;;;;;;;;;5071415;28;20558;-72
2023/10/13 03:53:35;;;;;;;43.15;21.23;;;;;;;;;;5070815;28;20044;-72
2023/10/13 03:56:08;;;;;;;44.28;20.75;;;;;;;;;;5056765;28;20036;-72
2023/10/13 03:58:38;;;;;;;40.83;20.17;;;;;;;;;;5055646;28;20032;-72
2023/10/13 04:01:09;;;;;;;39.38;19.75;;;;;;;;;;5071439;28;20068;-72
2023/10/13 04:03:36;;;;;;;39.60;18.80;;;;;;;;;;5071905;28;20048;-72
2023/10/13 04:06:16;;;;;;;39.85;19.67;;;;;;;;;;5072897;28;20055;-72
2023/10/13 04:08:48;;;;;;;41.10;20.35;;;;;;;;;;5056010;28;20040;-72
2023/10/13 04:16:54;;;;;;;37.25;19.27;;;;;;;;;;5073501;28;20040;-72
2023/10/13 04:19:23;;;;;;;36.47;18.52;;;;;;;;;;5067221;28;20514;-72
2023/10/13 04:21:57;;;;;;;37.22;19.85;;;;;;;;;;5067066;28;20043;-72
2023/10/13 04:24:39;;;;;;;38.55;18.23;;;;;;;;;;5068607;28;20044;-72
2023/10/13 04:29:50;;;;;;;35.28;17.60;;;;;;;;;;5065988;28;20045;-72
2023/10/13 04:32:28;;;;;;;33.13;17.05;;;;;;;;;;5054664;28;20045;-72
2023/10/13 04:34:58;;;;;;;35.13;18.73;;;;;;;;;;5068569;28;20047;-72
2023/10/13 04:37:32;;;;;;;34.85;17.48;;;;;;;;;;5067593;28;20039;-72
2023/10/13 04:40:11;;;;;;;36.90;19.20;;;;;;;;;;5064626;28;20059;-72
2023/10/13 04:42:50;;;;;;;36.40;17.75;;;;;;;;;;5065921;28;20118;-72
2023/10/13 04:48:13;;;;;;;33.45;16.77;;;;;;;;;;5063208;28;20047;-72
2023/10/13 04:50:44;;;;;;;36.50;17.85;;;;;;;;;;5071042;28;20032;-72
2023/10/13 04:53:27;;;;;;;36.95;17.05;;;;;;;;;;5070895;28;20040;-72
2023/10/13 05:04:22;;;;;;;34.17;16.23;;;;;;;;;;5016408;28;20127;-72
2023/10/13 05:46:20;;;;;;;19.88;12.13;;;;;;;;;;5064557;28;20804;-72
2023/10/13 06:29:50;;;;;;;15.90;9.18;;;;;;;;;;5064188;28;20040;-71
2023/10/13 06:32:16;;;;;;;14.38;8.63;;;;;;;;;;5070745;28;20051;-71
2023/10/13 06:34:45;;;;;;;13.00;8.25;;;;;;;;;;5053636;28;20065;-71
2023/10/13 06:39:51;;;;;;;12.35;8.10;;;;;;;;;;5062405;28;20051;-72
2023/10/13 06:42:19;;;;;;;13.60;7.43;;;;;;;;;;5070146;28;20047;-71
2023/10/13 06:44:45;;;;;;;14.80;7.65;;;;;;;;;;5066132;28;20406;-71
2023/10/13 06:47:12;;;;;;;11.32;7.50;;;;;;;;;;5069354;28;20037;-71
2023/10/13 06:49:43;;;;;;;13.38;7.07;;;;;;;;;;5052927;28;20036;-71
2023/10/13 06:52:10;;;;;;;11.80;7.55;;;;;;;;;;5060558;28;20045;-72
2023/10/13 06:54:39;;;;;;;11.90;7.65;;;;;;;;;;5065829;28;20054;-71
2023/10/13 06:57:10;;;;;;;14.93;7.50;;;;;;;;;;5063493;28;20037;-71
2023/10/13 06:59:39;;;;;;;14.52;7.35;;;;;;;;;;5070113;28;20043;-72
2023/10/13 07:02:06;;;;;;;11.68;6.22;;;;;;;;;;5070746;28;20040;-72
2023/10/13 07:04:32;;;;;;;13.55;7.13;;;;;;;;;;5070269;28;20036;-71
2023/10/13 07:07:00;;;;;;;11.10;5.70;;;;;;;;;;5070492;28;20429;-71
2023/10/13 07:12:03;;;;;;;10.50;5.50;;;;;;;;;;5065637;28;20049;-71
2023/10/13 07:14:33;;;;;;;12.43;5.57;;;;;;;;;;5051475;28;20045;-71
2023/10/13 07:17:02;;;;;;;11.18;5.03;;;;;;;;;;5050707;28;20080;-71
2023/10/13 07:19:28;;;;;;;12.05;5.35;;;;;;;;;;5065157;28;20035;-71
2023/10/13 07:22:37;;;;;;;10.68;4.95;;;;;;;;;;5057599;28;20033;-71
2023/10/13 07:24:50;;;;;;;9.00;5.13;;;;;;;;;;5062750;28;20058;-71
2023/10/13 07:27:24;;;;;;;11.48;4.82;;;;;;;;;;5070392;28;20032;-71
2023/10/13 07:32:37;;;;;;;10.80;5.43;;;;;;;;;;5046281;28;20037;-71
2023/10/13 07:35:11;;;;;;;11.18;5.18;;;;;;;;;;5068440;28;20040;-71
2023/10/13 07:37:41;;;;;;;13.95;5.78;;;;;;;;;;5053764;28;20076;-71
2023/10/13 07:40:21;;;;;;;12.90;6.80;;;;;;;;;;5071554;28;20463;-71
2023/10/13 07:42:47;;;;;;;15.05;6.13;;;;;;;;;;5061916;28;20037;-71
2023/10/13 07:45:13;;;;;;;12.88;5.88;;;;;;;;;;5068210;28;20033;-71
2023/10/13 07:47:39;;;;;;;14.68;6.13;;;;;;;;;;5065927;28;20090;-71
2023/10/13 07:50:06;;;;;;;12.73;5.35;;;;;;;;;;5071726;28;20406;-71
2023/10/13 07:52:36;;;;;;;13.90;6.13;;;;;;;;;;5060490;28;20037;-71
2023/10/13 07:55:11;;;;;;;15.50;6.30;;;;;;;;;;5073992;28;20040;-71
2023/10/13 07:57:53;;;;;;;15.38;6.75;;;;;;;;;;5065299;28;20037;-71
2023/10/13 08:08:40;;;;;;;14.45;6.80;;;;;;;;;;5061432;28;20037;-71
2023/10/13 08:11:54;;;;;;;12.93;6.00;;;;;;;;;;5068962;28;20086;-70
2023/10/13 08:14:00;;;;;;;13.75;7.03;;;;;;;;;;5060062;28;20049;-71
2023/10/13 08:16:45;;;;;;;14.70;7.25;;;;;;;;;;5071959;28;20036;-71
2023/10/13 08:19:12;;;;;;;16.73;6.35;;;;;;;;;;5073610;28;20041;-71
2023/10/13 08:21:48;;;;;;;16.83;6.35;;;;;;;;;;5067895;28;20041;-71
2023/10/13 08:24:15;;;;;;;14.82;6.63;;;;;;;;;;5064603;28;20056;-71
2023/10/13 08:32:19;;;;;;;18.73;7.05;;;;;;;;;;5066792;28;20048;-71
2023/10/13 08:48:07;;;;;;;16.92;7.70;;;;;;;;;;5058763;28;20483;-71
2023/10/13 08:53:44;;;;;;;16.63;8.23;;;;;;;;;;5065645;28;20083;-72
2023/10/13 09:04:22;;;;;;;15.50;8.07;;;;;;;;;;5061687;28;20052;-72
2023/10/13 09:15:19;;;;;;;15.20;7.15;;;;;;;;;;5071210;28;20055;-72
2023/10/13 09:17:52;;;;;;;16.08;6.90;;;;;;;;;;5066728;28;20036;-72
2023/10/13 09:21:08;;;;;;;15.45;6.50;;;;;;;;;;5097512;22;20052;-70
2023/10/13 09:23:40;;;;;;;16.58;6.47;;;;;;;;;;5048274;28;20055;-70
2023/10/13 09:26:12;;;;;;;12.38;6.25;;;;;;;;;;5090191;28;20064;-71
2023/10/13 09:28:38;;;;;;;11.20;5.65;;;;;;;;;;5070362;28;20124;-71
2023/10/13 09:31:09;;;;;;;14.02;6.38;;;;;;;;;;5086549;28;20123;-71
2023/10/13 09:33:36;;;;;;;13.93;6.15;;;;;;;;;;5072034;28;20589;-71
2023/10/13 09:36:06;;;;;;;13.20;6.13;;;;;;;;;;5078175;28;20032;-71
2023/10/13 09:38:40;;;;;;;15.27;6.38;;;;;;;;;;5079689;28;20041;-71
2023/10/13 09:41:19;;;;;;;18.02;6.25;;;;;;;;;;5060001;28;20032;-71
2023/10/13 09:43:45;;;;;;;15.23;6.53;;;;;;;;;;5066000;28;20036;-71
2023/10/13 09:46:18;;;;;;;16.20;6.32;;;;;;;;;;5052933;28;20046;-71
2023/10/13 09:49:06;;;;;;;12.73;6.20;;;;;;;;;;5056683;28;20036;-71
2023/10/13 09:51:32;;;;;;;15.20;6.55;;;;;;;;;;5066225;28;20071;-71
2023/10/13 09:54:09;;;;;;;11.68;5.50;;;;;;;;;;5059528;28;20091;-71
2023/10/13 09:56:51;;;;;;;17.40;6.72;;;;;;;;;;5066899;28;20067;-71
2023/10/13 09:59:20;;;;;;;14.13;6.40;;;;;;;;;;5066245;28;20547;-71
2023/10/13 10:01:57;;;;;;;14.70;6.15;;;;;;;;;;5074300;28;20029;-71
2023/10/13 10:04:23;;;;;;;12.88;5.20;;;;;;;;;;5053600;28;20044;-71
2023/10/13 10:06:56;;;;;;;12.95;5.90;;;;;;;;;;5070488;28;20115;-71
2023/10/13 10:09:36;;;;;;;14.98;6.88;;;;;;;;;;5052363;28;20119;-71
2023/10/13 10:12:08;;;;;;;15.68;5.90;;;;;;;;;;5077288;28;20098;-71
2023/10/13 10:14:36;;;;;;;15.32;5.90;;;;;;;;;;5076254;28;20082;-71
2023/10/13 10:17:09;;;;;;;16.58;5.93;;;;;;;;;;5069465;28;20040;-71
2023/10/13 10:19:47;;;;;;;10.10;5.85;;;;;;;;;;5073848;28;20028;-71
2023/10/13 10:22:16;;;;;;;13.20;6.15;;;;;;;;;;5069994;28;20040;-71
2023/10/13 10:24:43;;;;;;;14.35;5.93;;;;;;;;;;5066131;28;20573;-72
2023/10/13 10:27:14;;;;;;;18.30;5.85;;;;;;;;;;5063850;28;20045;-72
2023/10/13 10:29:41;;;;;;;12.95;5.95;;;;;;;;;;5076108;28;20040;-72
2023/10/13 10:32:14;;;;;;;14.88;5.30;;;;;;;;;;5071182;28;20135;-72
2023/10/13 10:34:40;;;;;;;18.52;6.10;;;;;;;;;;5067979;28;20036;-72
2023/10/13 10:37:09;;;;;;;13.45;5.70;;;;;;;;;;5075028;28;20115;-72
2023/10/13 10:39:45;;;;;;;18.42;6.55;;;;;;;;;;5064971;28;20072;-72
2023/10/13 10:42:15;;;;;;;14.90;5.88;;;;;;;;;;5070250;28;20091;-72
2023/10/13 10:44:47;;;;;;;14.77;5.78;;;;;;;;;;5080387;28;20051;-72
2023/10/13 10:47:36;;;;;;;12.90;5.50;;;;;;;;;;5065276;28;20055;-71
2023/10/13 10:50:08;;;;;;;17.95;5.88;;;;;;;;;;5070335;28;20049;-71
2023/10/13 10:52:39;;;;;;;16.83;6.35;;;;;;;;;;5073973;28;20478;-71
2023/10/13 10:55:07;;;;;;;17.55;5.65;;;;;;;;;;5067754;28;20433;-72
2023/10/13 10:57:37;;;;;;;15.45;5.65;;;;;;;;;;5070993;28;20032;-72
2023/10/13 11:00:15;;;;;;;10.63;5.68;;;;;;;;;;5071519;28;20071;-72
2023/10/13 11:02:41;;;;;;;13.98;6.03;;;;;;;;;;5063209;28;20048;-71
2023/10/13 11:05:09;;;;;;;11.55;6.18;;;;;;;;;;5073535;28;20127;-72
2023/10/13 11:07:36;;;;;;;14.00;6.05;;;;;;;;;;5069478;28;20082;-71
2023/10/13 11:10:12;;;;;;;14.25;6.38;;;;;;;;;;5051346;28;20040;-71
2023/10/13 11:12:39;;;;;;;12.02;6.22;;;;;;;;;;5075584;28;20094;-71
2023/10/13 11:15:15;;;;;;;18.92;6.10;;;;;;;;;;5079490;28;20044;-71
2023/10/13 11:17:51;;;;;;;16.17;5.60;;;;;;;;;;5070653;28;20115;-71
2023/10/13 11:20:18;;;;;;;16.33;6.40;;;;;;;;;;5070652;28;20040;-73
2023/10/13 11:22:47;;;;;;;13.98;6.00;;;;;;;;;;5053925;28;20036;-71
2023/10/13 11:25:22;;;;;;;13.75;6.40;;;;;;;;;;5043342;28;20428;-71
2023/10/13 11:30:19;;;;;;;12.55;5.63;;;;;;;;;;5077210;28;20053;-72
2023/10/13 11:32:46;;;;;;;16.40;6.45;;;;;;;;;;5061750;28;20036;-72
2023/10/13 11:35:23;;;;;;;18.75;6.18;;;;;;;;;;5073548;28;20106;-72
2023/10/13 11:38:02;;;;;;;17.15;5.88;;;;;;;;;;5072652;28;20418;-72
2023/10/13 11:40:59;;;;;;;18.02;6.00;;;;;;;;;;5075669;28;20040;-72
2023/10/13 11:43:26;;;;;;;21.52;6.43;;;;;;;;;;5051839;28;20084;-72
2023/10/13 11:45:56;;;;;;;14.27;6.40;;;;;;;;;;5053402;28;20512;-72
2023/10/13 11:48:34;;;;;;;15.82;6.25;;;;;;;;;;5040239;28;20076;-72
2023/10/13 11:51:06;;;;;;;14.88;5.95;;;;;;;;;;5078528;28;20055;-72
2023/10/13 11:53:32;;;;;;;12.65;5.60;;;;;;;;;;5076157;28;20045;-71
2023/10/13 11:55:58;;;;;;;17.17;6.03;;;;;;;;;;5054055;28;20127;-71
2023/10/13 11:58:24;;;;;;;16.67;6.38;;;;;;;;;;5055662;28;20465;-71
2023/10/13 12:00:51;;;;;;;15.98;6.60;;;;;;;;;;5064619;28;20047;-71
2023/10/13 12:06:32;;;;;;;13.07;6.60;;;;;;;;;;5071076;28;20048;-72
2023/10/13 12:09:11;;;;;;;11.70;6.00;;;;;;;;;;5069513;28;20045;-72
2023/10/13 12:11:41;;;;;;;13.45;6.20;;;;;;;;;;5070926;28;20037;-72
2023/10/13 12:14:21;;;;;;;17.15;6.32;;;;;;;;;;5074250;28;20056;-72
2023/10/13 12:16:50;;;;;;;13.27;5.68;;;;;;;;;;5081585;28;20043;-72
2023/10/13 12:19:23;;;;;;;16.33;6.20;;;;;;;;;;5055078;28;20086;-72
2023/10/13 12:21:56;;;;;;;15.13;6.28;;;;;;;;;;5075840;28;20048;-72
2023/10/13 12:24:30;;;;;;;17.25;6.20;;;;;;;;;;5054401;28;20044;-72
2023/10/13 12:26:57;;;;;;;16.42;6.47;;;;;;;;;;5076088;28;20048;-72
2023/10/13 12:29:28;;;;;;;14.75;6.32;;;;;;;;;;5072323;28;20478;-72
2023/10/13 12:32:07;;;;;;;14.02;6.13;;;;;;;;;;5072129;28;20082;-72
2023/10/13 12:51:40;;;;;;;14.45;6.40;;;;;;;;;;5080169;28;20036;-72
2023/10/13 12:54:13;;;;;;;15.93;6.15;;;;;;;;;;5079739;28;20051;-72
2023/10/13 12:56:41;;;;;;;17.45;6.30;;;;;;;;;;5069647;28;20041;-72
2023/10/13 12:59:09;;;;;;;16.42;6.05;;;;;;;;;;5076681;28;20055;-72
2023/10/13 13:01:35;;;;;;;10.50;5.78;;;;;;;;;;5072624;28;20079;-72
2023/10/13 13:04:03;;;;;;;12.00;6.57;;;;;;;;;;5076455;28;20083;-72
2023/10/13 13:06:30;;;;;;;15.55;6.15;;;;;;;;;;5081706;28;20125;-72
2023/10/13 13:09:00;;;;;;;16.10;6.32;;;;;;;;;;5071550;28;20044;-72
2023/10/13 13:11:29;;;;;;;18.38;6.60;;;;;;;;;;5072994;28;20047;-72
2023/10/13 13:13:55;;;;;;;14.55;6.65;;;;;;;;;;5071664;28;20044;-73
2023/10/13 13:16:24;;;;;;;18.17;6.60;;;;;;;;;;5069056;28;20555;-72
2023/10/13 13:18:50;;;;;;;18.00;6.20;;;;;;;;;;5051716;28;20518;-72
2023/10/13 13:21:27;;;;;;;16.35;6.15;;;;;;;;;;5069113;28;20502;-72
2023/10/13 13:23:56;;;;;;;17.27;6.47;;;;;;;;;;5057367;28;20055;-72
2023/10/13 13:26:22;;;;;;;14.60;6.18;;;;;;;;;;5072374;28;20029;-72
2023/10/13 13:28:52;;;;;;;12.95;5.80;;;;;;;;;;5077646;28;20090;-72
2023/10/13 13:31:18;;;;;;;13.70;5.75;;;;;;;;;;5068410;28;20040;-71
2023/10/13 13:33:44;;;;;;;20.42;6.10;;;;;;;;;;5069424;28;20097;-71
2023/10/13 13:36:15;;;;;;;16.55;5.90;;;;;;;;;;5072086;28;20036;-71
2023/10/13 13:38:41;;;;;;;;;;;;;;;;;;5067186;28;20037;-71
2023/10/13 13:41:16;;;;;;;13.73;5.97;;;;;;;;;;5073203;28;19981;-71
2023/10/13 13:43:57;;;;;;;18.67;7.05;;;;;;;;;;5051733;28;20079;-71
2023/10/13 13:46:32;;;;;;;;;;;;;;;;;;5076983;28;20040;-71
2023/10/13 13:49:01;;;;;;;17.25;6.63;;;;;;;;;;5067931;28;19955;-72
2023/10/13 13:51:27;;;;;;;18.90;6.22;;;;;;;;;;5063831;28;20041;-72
2023/10/13 13:53:54;;;;;;;16.63;6.82;;;;;;;;;;5065068;28;20487;-73
2023/10/13 13:56:20;;;;;;;16.27;6.50;;;;;;;;;;5075371;28;20028;-73
2023/10/13 13:58:47;;;;;;;18.80;7.15;;;;;;;;;;5066494;28;20109;-72
2023/10/13 14:01:15;;;;;;;12.80;6.85;;;;;;;;;;5066234;28;20037;-72
2023/10/13 14:03:47;;;;;;;15.95;7.03;;;;;;;;;;5069698;28;20086;-73
2023/10/13 14:06:18;;;;;;;15.52;6.82;;;;;;;;;;5065614;28;20093;-73
2023/10/13 14:08:48;;;;;;;18.38;7.72;;;;;;;;;;5067901;28;20395;-72
2023/10/13 14:11:21;;;;;;;19.95;7.43;;;;;;;;;;5081411;28;20056;-72
2023/10/13 14:13:48;;;;;;;17.35;7.25;;;;;;;;;;5071868;28;20037;-73
2023/10/13 14:16:17;;;;;;;19.13;7.50;;;;;;;;;;5070700;28;20036;-73
2023/10/13 14:18:46;;;;;;;15.90;7.45;;;;;;;;;;5082717;28;20040;-72
2023/10/13 14:21:16;;;;;;;19.25;7.45;;;;;;;;;;5074398;28;20050;-72
2023/10/13 14:23:45;;;;;;;19.00;7.05;;;;;;;;;;5066640;28;20438;-72
2023/10/13 14:26:15;;;;;;;15.20;6.65;;;;;;;;;;5066428;28;20044;-72
2023/10/13 14:31:37;;;;;;;18.65;7.70;;;;;;;;;;5048076;28;20441;-72
2023/10/13 14:34:03;;;;;;;18.95;7.05;;;;;;;;;;5054039;28;20391;-73
2023/10/13 14:36:31;;;;;;;16.10;6.75;;;;;;;;;;5075553;28;20520;-73
2023/10/13 14:38:57;;;;;;;19.38;7.95;;;;;;;;;;5070811;28;20090;-73
2023/10/13 14:41:24;;;;;;;19.08;8.02;;;;;;;;;;5073979;28;20040;-73
2023/10/13 14:43:50;;;;;;;17.15;7.75;;;;;;;;;;5073733;28;20520;-73
2023/10/13 14:46:16;;;;;;;18.10;7.10;;;;;;;;;;5071357;28;20409;-72
2023/10/13 14:48:48;;;;;;;16.50;6.97;;;;;;;;;;5085175;28;20036;-72
2023/10/13 14:51:16;;;;;;;15.32;6.93;;;;;;;;;;5072393;28;20044;-72
2023/10/13 14:53:46;;;;;;;17.27;7.93;;;;;;;;;;5078264;28;20447;-73
2023/10/13 14:56:12;;;;;;;17.92;7.82;;;;;;;;;;5074244;28;20045;-72
2023/10/13 14:58:44;;;;;;;19.50;7.38;;;;;;;;;;5076352;28;20036;-72
2023/10/13 15:01:20;;;;;;;18.25;7.68;;;;;;;;;;5075528;28;20040;-73
2023/10/13 15:03:47;;;;;;;16.17;8.32;;;;;;;;;;5075526;28;20048;-72
2023/10/13 15:06:20;;;;;;;18.58;8.30;;;;;;;;;;5073908;28;20136;-72
2023/10/13 15:08:47;;;;;;;20.77;8.32;;;;;;;;;;5082327;28;20078;-72
2023/10/13 15:11:13;;;;;;;20.50;7.97;;;;;;;;;;5088621;28;20044;-73
2023/10/13 15:13:42;;;;;;;22.27;8.18;;;;;;;;;;5073781;28;20045;-73
2023/10/13 15:16:18;;;;;;;21.92;8.23;;;;;;;;;;5078825;28;20037;-73
2023/10/13 15:18:52;;;;;;;19.73;8.73;;;;;;;;;;5093688;22;20486;-72
2023/10/13 15:21:32;;;;;;;23.20;8.45;;;;;;;;;;5069828;28;20029;-73
2023/10/13 15:24:03;;;;;;;21.25;8.68;;;;;;;;;;5054557;28;20044;-73
2023/10/13 15:26:29;;;;;;;21.55;8.25;;;;;;;;;;5054436;28;20040;-73
2023/10/13 15:28:55;;;;;;;15.93;8.23;;;;;;;;;;5055698;28;20052;-73
2023/10/13 15:31:22;;;;;;;17.38;7.95;;;;;;;;;;5054270;28;20123;-73
2023/10/13 15:33:52;;;;;;;21.73;7.95;;;;;;;;;;5067830;28;20048;-73
2023/10/13 15:36:19;;;;;;;14.02;8.05;;;;;;;;;;5069344;28;20063;-74
2023/10/13 15:38:46;;;;;;;18.83;8.60;;;;;;;;;;5071222;28;20037;-73
2023/10/13 15:41:12;;;;;;;19.23;7.97;;;;;;;;;;5067193;28;20040;-73
2023/10/13 15:43:49;;;;;;;17.05;8.30;;;;;;;;;;5055558;28;20048;-73
2023/10/13 15:46:16;;;;;;;17.50;8.15;;;;;;;;;;5072660;28;20036;-73
2023/10/13 15:48:45;;;;;;;14.52;7.43;;;;;;;;;;5068093;28;20487;-72
2023/10/13 15:51:14;;;;;;;18.90;8.50;;;;;;;;;;5072883;28;20079;-72
2023/10/13 15:53:41;;;;;;;16.95;7.80;;;;;;;;;;5070027;28;20417;-72
2023/10/13 15:56:11;;;;;;;17.27;7.53;;;;;;;;;;5071283;28;20127;-72
2023/10/13 15:58:43;;;;;;;18.08;7.45;;;;;;;;;;5072392;28;20436;-72
2023/10/13 16:01:09;;;;;;;18.02;7.40;;;;;;;;;;5054284;28;20036;-72
2023/10/13 16:03:35;;;;;;;14.25;6.82;;;;;;;;;;5070465;28;20036;-72
2023/10/13 16:06:09;;;;;;;15.07;7.18;;;;;;;;;;5056784;28;20055;-72
2023/10/13 16:08:35;;;;;;;13.85;6.50;;;;;;;;;;5052897;28;20498;-72
2023/10/13 16:11:17;;;;;;;12.93;6.47;;;;;;;;;;5071458;28;20045;-72
2023/10/13 16:13:44;;;;;;;16.00;5.93;;;;;;;;;;5069525;28;20048;-72
2023/10/13 16:16:16;;;;;;;15.88;6.72;;;;;;;;;;5049094;28;20398;-72
2023/10/13 16:18:47;;;;;;;18.77;7.25;;;;;;;;;;5070248;28;20064;-72
2023/10/13 16:21:14;;;;;;;15.32;7.05;;;;;;;;;;5073163;28;20090;-72
2023/10/13 16:23:40;;;;;;;20.38;7.50;;;;;;;;;;5055072;28;20052;-72
2023/10/13 16:26:08;;;;;;;13.75;6.97;;;;;;;;;;5056406;28;20506;-72
2023/10/13 16:28:35;;;;;;;19.63;8.05;;;;;;;;;;5068132;28;20111;-72
2023/10/13 16:31:01;;;;;;;18.02;7.40;;;;;;;;;;5071290;28;20109;-72
2023/10/13 16:33:28;;;;;;;16.17;8.15;;;;;;;;;;5054388;28;20045;-72
2023/10/13 16:35:56;;;;;;;15.10;7.28;;;;;;;;;;5071089;28;20036;-72
2023/10/13 16:38:24;;;;;;;14.63;7.10;;;;;;;;;;5070807;28;20433;-73
2023/10/13 16:40:53;;;;;;;15.88;7.30;;;;;;;;;;5069169;28;20036;-72
2023/10/13 16:43:20;;;;;;;20.23;7.70;;;;;;;;;;5066494;28;20129;-72
2023/10/13 16:45:46;;;;;;;12.95;7.18;;;;;;;;;;5066882;28;20111;-72
2023/10/13 16:48:16;;;;;;;14.52;6.78;;;;;;;;;;5059315;28;20047;-72
2023/10/13 16:50:46;;;;;;;15.05;7.25;;;;;;;;;;5050605;28;20735;-72
2023/10/13 16:53:12;;;;;;;17.65;7.57;;;;;;;;;;5051370;28;20036;-72
2023/10/13 16:55:41;;;;;;;18.42;7.78;;;;;;;;;;5070547;28;20040;-73
2023/10/13 16:58:10;;;;;;;18.73;7.85;;;;;;;;;;5051903;28;20052;-73
2023/10/13 17:00:36;;;;;;;17.83;7.60;;;;;;;;;;5050935;28;20047;-73
2023/10/13 17:03:05;;;;;;;17.90;7.40;;;;;;;;;;5069190;28;20371;-73
2023/10/13 17:05:38;;;;;;;19.27;7.10;;;;;;;;;;5070382;28;20041;-73
2023/10/13 17:08:06;;;;;;;16.42;6.38;;;;;;;;;;5062773;28;20040;-73
2023/10/13 17:10:32;;;;;;;13.23;6.25;;;;;;;;;;5050713;28;20094;-73
2023/10/13 17:13:00;;;;;;;12.52;5.95;;;;;;;;;;5071573;28;20097;-73
2023/10/13 17:15:31;;;;;;;12.75;5.90;;;;;;;;;;5072184;28;20079;-73
2023/10/13 17:17:58;;;;;;;13.98;5.47;;;;;;;;;;5070397;28;20045;-73
2023/10/13 17:20:24;;;;;;;13.45;5.63;;;;;;;;;;5048300;28;20123;-73
2023/10/13 17:22:50;;;;;;;12.95;5.78;;;;;;;;;;5070416;28;20386;-73
2023/10/13 17:25:16;;;;;;;17.65;5.78;;;;;;;;;;5071482;28;20484;-73
2023/10/13 17:27:43;;;;;;;13.18;6.30;;;;;;;;;;5071004;28;20040;-73
2023/10/13 17:30:10;;;;;;;15.88;6.22;;;;;;;;;;5053286;28;20044;-73
2023/10/13 17:32:36;;;;;;;12.27;5.95;;;;;;;;;;5071564;28;20524;-73
2023/10/13 17:35:03;;;;;;;16.80;7.40;;;;;;;;;;5070767;28;20041;-72
2023/10/13 17:37:33;;;;;;;16.13;7.03;;;;;;;;;;5052451;28;20076;-73
2023/10/13 17:40:03;;;;;;;19.35;8.38;;;;;;;;;;5069160;28;20565;-73
2023/10/13 17:42:30;;;;;;;21.83;7.70;;;;;;;;;;5070973;28;20587;-73
2023/10/13 17:44:56;;;;;;;15.60;6.82;;;;;;;;;;5071081;28;20398;-73
2023/10/13 17:47:22;;;;;;;17.55;6.95;;;;;;;;;;5071300;28;20051;-73
2023/10/13 17:49:50;;;;;;;16.15;6.80;;;;;;;;;;5051664;28;20222;-73
2023/10/13 17:52:16;;;;;;;15.30;6.97;;;;;;;;;;5043355;28;20045;-73
2023/10/13 17:54:42;;;;;;;17.88;7.13;;;;;;;;;;5063093;28;20043;-72
2023/10/13 17:57:09;;;;;;;16.52;7.47;;;;;;;;;;5050232;28;20036;-72
2023/10/13 17:59:38;;;;;;;15.10;7.22;;;;;;;;;;5049616;28;20090;-72